Weather at Antwerpen/Deurne Airport- EBAW


metar: EBAW 181520Z 35011KT 320V020 9999 FEW035 SCT048 11/03 Q1017 NOSIG

37 minuten geleden, om 15:20 UTC, de wind blies met windsnelheden van 5.7 meter per seconde(12.7 mijl per uur) vanuit Noord nabij Antwerpen/Deurne. De temperatuur was 11 °C (52 °F), en de barometerdruk was 1,017 hPa (30.03 inHg). De relatieve vochtigheid was 57.7%. er was weinig bewolking op een hoogte van 1067 meter (3500 voet) en verspreide bewolking op een hoogte van 1463 meter (4800 voet). De zichtbaarheid was >10 kilometer (>6.2 mijl).

temperature image   windir image sky image 

Last 24 hour graph Antwerpen/Deurne - EBAW